sensor_id;sensor_type;location;lat;lon;timestamp;temperature;humidity
27544;DHT22;17996;51.056;3.656;2023-06-22T00:00:55;21.10;99.90
27544;DHT22;17996;51.056;3.656;2023-06-22T00:03:22;21.10;99.90
27544;DHT22;17996;51.056;3.656;2023-06-22T00:05:49;21.10;99.90
27544;DHT22;17996;51.056;3.656;2023-06-22T00:08:15;21.00;99.90
27544;DHT22;17996;51.056;3.656;2023-06-22T00:10:42;21.00;99.90
27544;DHT22;17996;51.056;3.656;2023-06-22T00:13:08;21.00;99.90
27544;DHT22;17996;51.056;3.656;2023-06-22T00:15:39;21.00;99.90
27544;DHT22;17996;51.056;3.656;2023-06-22T00:18:09;20.90;99.90
27544;DHT22;17996;51.056;3.656;2023-06-22T00:20:36;20.80;99.90
27544;DHT22;17996;51.056;3.656;2023-06-22T00:23:03;20.80;99.90
27544;DHT22;17996;51.056;3.656;2023-06-22T00:25:36;20.70;99.90
27544;DHT22;17996;51.056;3.656;2023-06-22T00:28:03;20.70;99.90
27544;DHT22;17996;51.056;3.656;2023-06-22T00:30:30;20.70;99.90
27544;DHT22;17996;51.056;3.656;2023-06-22T00:32:56;20.70;99.90
27544;DHT22;17996;51.056;3.656;2023-06-22T00:35:22;20.60;99.90
27544;DHT22;17996;51.056;3.656;2023-06-22T00:37:48;20.60;99.90
27544;DHT22;17996;51.056;3.656;2023-06-22T00:40:13;20.60;99.90
27544;DHT22;17996;51.056;3.656;2023-06-22T00:42:40;20.50;99.90
27544;DHT22;17996;51.056;3.656;2023-06-22T00:45:07;20.50;99.90
27544;DHT22;17996;51.056;3.656;2023-06-22T00:47:36;20.50;99.90
27544;DHT22;17996;51.056;3.656;2023-06-22T00:50:06;20.50;99.90
27544;DHT22;17996;51.056;3.656;2023-06-22T00:52:32;20.50;99.90
27544;DHT22;17996;51.056;3.656;2023-06-22T00:55:02;20.40;99.90
27544;DHT22;17996;51.056;3.656;2023-06-22T00:57:28;20.40;99.90
27544;DHT22;17996;51.056;3.656;2023-06-22T00:59:54;20.30;99.90
27544;DHT22;17996;51.056;3.656;2023-06-22T01:02:20;20.30;99.90
27544;DHT22;17996;51.056;3.656;2023-06-22T01:04:46;20.30;99.90
27544;DHT22;17996;51.056;3.656;2023-06-22T01:07:34;20.30;99.90
27544;DHT22;17996;51.056;3.656;2023-06-22T01:10:16;20.30;99.90
27544;DHT22;17996;51.056;3.656;2023-06-22T01:12:47;20.20;99.90
27544;DHT22;17996;51.056;3.656;2023-06-22T01:15:23;20.10;99.90
27544;DHT22;17996;51.056;3.656;2023-06-22T01:17:52;20.00;99.90
27544;DHT22;17996;51.056;3.656;2023-06-22T01:20:20;20.00;99.90
27544;DHT22;17996;51.056;3.656;2023-06-22T01:26:04;20.00;99.90
27544;DHT22;17996;51.056;3.656;2023-06-22T01:28:42;20.00;99.90
27544;DHT22;17996;51.056;3.656;2023-06-22T01:31:10;20.00;99.90
27544;DHT22;17996;51.056;3.656;2023-06-22T01:33:38;20.00;99.90
27544;DHT22;17996;51.056;3.656;2023-06-22T01:36:05;20.00;99.90
27544;DHT22;17996;51.056;3.656;2023-06-22T01:38:33;20.00;99.90
27544;DHT22;17996;51.056;3.656;2023-06-22T01:41:00;19.90;99.90
27544;DHT22;17996;51.056;3.656;2023-06-22T01:43:27;19.80;99.90
27544;DHT22;17996;51.056;3.656;2023-06-22T01:45:58;19.80;99.90
27544;DHT22;17996;51.056;3.656;2023-06-22T01:48:24;19.80;99.90
27544;DHT22;17996;51.056;3.656;2023-06-22T01:50:52;19.80;99.90
27544;DHT22;17996;51.056;3.656;2023-06-22T01:53:20;19.70;99.90
27544;DHT22;17996;51.056;3.656;2023-06-22T01:55:45;19.70;99.90
27544;DHT22;17996;51.056;3.656;2023-06-22T01:58:11;19.70;99.90
27544;DHT22;17996;51.056;3.656;2023-06-22T02:00:39;19.70;99.90
27544;DHT22;17996;51.056;3.656;2023-06-22T02:03:11;19.70;99.90
27544;DHT22;17996;51.056;3.656;2023-06-22T02:06:01;19.70;99.90
27544;DHT22;17996;51.056;3.656;2023-06-22T02:08:32;19.70;99.90
27544;DHT22;17996;51.056;3.656;2023-06-22T02:11:00;19.60;99.90
27544;DHT22;17996;51.056;3.656;2023-06-22T02:13:28;19.60;99.90
27544;DHT22;17996;51.056;3.656;2023-06-22T02:15:54;19.60;99.90
27544;DHT22;17996;51.056;3.656;2023-06-22T02:18:20;19.60;99.90
27544;DHT22;17996;51.056;3.656;2023-06-22T02:20:46;19.60;99.90
27544;DHT22;17996;51.056;3.656;2023-06-22T02:23:11;19.50;99.90
27544;DHT22;17996;51.056;3.656;2023-06-22T02:25:37;19.50;99.90
27544;DHT22;17996;51.056;3.656;2023-06-22T02:28:03;19.50;99.90
27544;DHT22;17996;51.056;3.656;2023-06-22T02:30:29;19.50;99.90
27544;DHT22;17996;51.056;3.656;2023-06-22T02:32:55;19.40;99.90
27544;DHT22;17996;51.056;3.656;2023-06-22T02:35:28;19.40;99.90
27544;DHT22;17996;51.056;3.656;2023-06-22T02:38:01;19.40;99.90
27544;DHT22;17996;51.056;3.656;2023-06-22T02:40:28;19.30;99.90
27544;DHT22;17996;51.056;3.656;2023-06-22T02:42:54;19.20;99.90
27544;DHT22;17996;51.056;3.656;2023-06-22T02:45:20;19.20;99.90
27544;DHT22;17996;51.056;3.656;2023-06-22T02:47:46;19.20;99.90
27544;DHT22;17996;51.056;3.656;2023-06-22T02:50:13;19.20;99.90
27544;DHT22;17996;51.056;3.656;2023-06-22T02:52:39;19.20;99.90
27544;DHT22;17996;51.056;3.656;2023-06-22T02:55:05;19.20;99.90
27544;DHT22;17996;51.056;3.656;2023-06-22T02:57:32;19.10;99.90
27544;DHT22;17996;51.056;3.656;2023-06-22T02:59:59;19.10;99.90
27544;DHT22;17996;51.056;3.656;2023-06-22T03:02:24;19.10;99.90
27544;DHT22;17996;51.056;3.656;2023-06-22T03:04:52;19.10;99.90
27544;DHT22;17996;51.056;3.656;2023-06-22T03:07:20;19.10;99.90
27544;DHT22;17996;51.056;3.656;2023-06-22T03:09:46;19.10;99.90
27544;DHT22;17996;51.056;3.656;2023-06-22T03:12:12;19.10;99.90
27544;DHT22;17996;51.056;3.656;2023-06-22T03:14:37;19.10;99.90
27544;DHT22;17996;51.056;3.656;2023-06-22T03:17:04;19.10;99.90
27544;DHT22;17996;51.056;3.656;2023-06-22T03:19:30;19.10;99.90
27544;DHT22;17996;51.056;3.656;2023-06-22T03:22:00;19.00;99.90
27544;DHT22;17996;51.056;3.656;2023-06-22T03:24:26;18.90;99.90
27544;DHT22;17996;51.056;3.656;2023-06-22T03:26:55;18.90;99.90
27544;DHT22;17996;51.056;3.656;2023-06-22T03:29:20;18.90;99.90
27544;DHT22;17996;51.056;3.656;2023-06-22T03:31:46;18.90;99.90
27544;DHT22;17996;51.056;3.656;2023-06-22T03:34:12;18.80;99.90
27544;DHT22;17996;51.056;3.656;2023-06-22T03:36:37;18.90;99.90
27544;DHT22;17996;51.056;3.656;2023-06-22T03:39:03;18.90;99.90
27544;DHT22;17996;51.056;3.656;2023-06-22T03:41:29;18.90;99.90
27544;DHT22;17996;51.056;3.656;2023-06-22T03:43:54;18.90;99.90
27544;DHT22;17996;51.056;3.656;2023-06-22T03:46:20;18.90;99.90
27544;DHT22;17996;51.056;3.656;2023-06-22T03:48:46;18.90;99.90
27544;DHT22;17996;51.056;3.656;2023-06-22T03:51:11;18.90;99.90
27544;DHT22;17996;51.056;3.656;2023-06-22T03:53:37;18.90;99.90
27544;DHT22;17996;51.056;3.656;2023-06-22T03:56:03;18.90;99.90
27544;DHT22;17996;51.056;3.656;2023-06-22T03:58:28;18.90;99.90
27544;DHT22;17996;51.056;3.656;2023-06-22T04:00:58;18.90;99.90
27544;DHT22;17996;51.056;3.656;2023-06-22T04:03:25;18.90;99.90
27544;DHT22;17996;51.056;3.656;2023-06-22T04:05:51;19.00;99.90
27544;DHT22;17996;51.056;3.656;2023-06-22T04:08:17;19.00;99.90
27544;DHT22;17996;51.056;3.656;2023-06-22T04:10:43;19.00;99.90
27544;DHT22;17996;51.056;3.656;2023-06-22T04:13:09;19.10;99.90
27544;DHT22;17996;51.056;3.656;2023-06-22T04:15:35;19.10;99.90
27544;DHT22;17996;51.056;3.656;2023-06-22T04:18:00;19.10;99.90
27544;DHT22;17996;51.056;3.656;2023-06-22T04:20:26;19.10;99.90
27544;DHT22;17996;51.056;3.656;2023-06-22T04:22:55;19.10;99.90
27544;DHT22;17996;51.056;3.656;2023-06-22T04:25:21;19.10;99.90
27544;DHT22;17996;51.056;3.656;2023-06-22T04:27:47;19.10;99.90
27544;DHT22;17996;51.056;3.656;2023-06-22T04:30:13;19.20;99.90
27544;DHT22;17996;51.056;3.656;2023-06-22T04:32:42;19.20;99.90
27544;DHT22;17996;51.056;3.656;2023-06-22T04:35:11;19.10;99.90
27544;DHT22;17996;51.056;3.656;2023-06-22T04:37:37;19.20;99.90
27544;DHT22;17996;51.056;3.656;2023-06-22T04:40:03;19.20;99.90
27544;DHT22;17996;51.056;3.656;2023-06-22T04:42:30;19.30;99.90
27544;DHT22;17996;51.056;3.656;2023-06-22T04:44:57;19.30;99.90
27544;DHT22;17996;51.056;3.656;2023-06-22T04:47:22;19.30;99.90
27544;DHT22;17996;51.056;3.656;2023-06-22T04:49:48;19.30;99.90
27544;DHT22;17996;51.056;3.656;2023-06-22T04:52:14;19.30;99.90
27544;DHT22;17996;51.056;3.656;2023-06-22T04:54:43;19.40;99.90
27544;DHT22;17996;51.056;3.656;2023-06-22T04:57:16;19.40;99.90
27544;DHT22;17996;51.056;3.656;2023-06-22T04:59:42;19.50;99.90
27544;DHT22;17996;51.056;3.656;2023-06-22T05:02:08;19.50;99.90
27544;DHT22;17996;51.056;3.656;2023-06-22T05:04:34;19.60;99.90
27544;DHT22;17996;51.056;3.656;2023-06-22T05:07:04;19.80;99.90
27544;DHT22;17996;51.056;3.656;2023-06-22T05:09:30;19.90;99.90
27544;DHT22;17996;51.056;3.656;2023-06-22T05:11:56;19.90;99.90
27544;DHT22;17996;51.056;3.656;2023-06-22T05:14:25;20.00;99.90
27544;DHT22;17996;51.056;3.656;2023-06-22T05:16:51;20.10;99.90
27544;DHT22;17996;51.056;3.656;2023-06-22T05:19:24;20.20;99.90
27544;DHT22;17996;51.056;3.656;2023-06-22T05:21:50;20.30;99.90
27544;DHT22;17996;51.056;3.656;2023-06-22T05:24:16;20.30;99.90
27544;DHT22;17996;51.056;3.656;2023-06-22T05:26:41;20.40;99.90
27544;DHT22;17996;51.056;3.656;2023-06-22T05:29:07;20.50;99.90
27544;DHT22;17996;51.056;3.656;2023-06-22T05:31:33;20.60;99.90
27544;DHT22;17996;51.056;3.656;2023-06-22T05:33:59;20.60;99.90
27544;DHT22;17996;51.056;3.656;2023-06-22T05:36:26;20.70;99.90
27544;DHT22;17996;51.056;3.656;2023-06-22T05:38:52;20.70;99.90
27544;DHT22;17996;51.056;3.656;2023-06-22T05:41:18;20.70;99.90
27544;DHT22;17996;51.056;3.656;2023-06-22T05:43:44;20.70;99.90
27544;DHT22;17996;51.056;3.656;2023-06-22T05:46:09;20.70;99.90
27544;DHT22;17996;51.056;3.656;2023-06-22T05:48:35;20.70;99.90
27544;DHT22;17996;51.056;3.656;2023-06-22T05:51:01;20.60;99.90
27544;DHT22;17996;51.056;3.656;2023-06-22T05:53:27;20.70;99.90
27544;DHT22;17996;51.056;3.656;2023-06-22T05:55:52;20.70;99.90
27544;DHT22;17996;51.056;3.656;2023-06-22T05:58:18;20.70;99.90
27544;DHT22;17996;51.056;3.656;2023-06-22T06:00:45;20.70;99.90
27544;DHT22;17996;51.056;3.656;2023-06-22T06:03:12;20.70;99.90
27544;DHT22;17996;51.056;3.656;2023-06-22T06:05:37;20.80;99.90
27544;DHT22;17996;51.056;3.656;2023-06-22T06:08:05;20.80;99.90
27544;DHT22;17996;51.056;3.656;2023-06-22T06:10:32;20.90;99.90
27544;DHT22;17996;51.056;3.656;2023-06-22T06:12:58;21.00;99.90
27544;DHT22;17996;51.056;3.656;2023-06-22T06:15:24;21.10;99.90
27544;DHT22;17996;51.056;3.656;2023-06-22T06:17:51;21.20;99.90
27544;DHT22;17996;51.056;3.656;2023-06-22T06:20:19;21.30;99.90
27544;DHT22;17996;51.056;3.656;2023-06-22T06:22:45;21.40;99.90
27544;DHT22;17996;51.056;3.656;2023-06-22T06:25:12;21.50;99.90
27544;DHT22;17996;51.056;3.656;2023-06-22T06:27:44;21.60;99.90
27544;DHT22;17996;51.056;3.656;2023-06-22T06:30:11;21.60;99.90
27544;DHT22;17996;51.056;3.656;2023-06-22T06:32:38;21.70;99.90
27544;DHT22;17996;51.056;3.656;2023-06-22T06:35:07;21.80;99.90
27544;DHT22;17996;51.056;3.656;2023-06-22T06:37:36;21.90;99.90
27544;DHT22;17996;51.056;3.656;2023-06-22T06:40:03;22.00;99.90
27544;DHT22;17996;51.056;3.656;2023-06-22T06:42:31;22.10;99.90
27544;DHT22;17996;51.056;3.656;2023-06-22T06:44:57;22.20;99.90
27544;DHT22;17996;51.056;3.656;2023-06-22T06:47:22;22.30;99.90
27544;DHT22;17996;51.056;3.656;2023-06-22T06:49:48;22.30;99.90
27544;DHT22;17996;51.056;3.656;2023-06-22T06:52:14;22.50;99.90
27544;DHT22;17996;51.056;3.656;2023-06-22T06:54:39;22.50;99.90
27544;DHT22;17996;51.056;3.656;2023-06-22T06:57:07;22.60;99.90
27544;DHT22;17996;51.056;3.656;2023-06-22T06:59:36;22.70;99.90
27544;DHT22;17996;51.056;3.656;2023-06-22T07:02:01;22.80;99.90
27544;DHT22;17996;51.056;3.656;2023-06-22T07:04:27;22.80;99.90
27544;DHT22;17996;51.056;3.656;2023-06-22T07:06:52;23.00;99.90
27544;DHT22;17996;51.056;3.656;2023-06-22T07:09:18;23.00;99.90
27544;DHT22;17996;51.056;3.656;2023-06-22T07:11:44;23.10;99.90
27544;DHT22;17996;51.056;3.656;2023-06-22T07:14:09;23.10;99.90
27544;DHT22;17996;51.056;3.656;2023-06-22T07:16:35;23.20;99.90
27544;DHT22;17996;51.056;3.656;2023-06-22T07:19:01;23.30;99.90
27544;DHT22;17996;51.056;3.656;2023-06-22T07:21:26;23.30;99.90
27544;DHT22;17996;51.056;3.656;2023-06-22T07:23:52;23.40;99.90
27544;DHT22;17996;51.056;3.656;2023-06-22T07:26:19;23.40;99.90
27544;DHT22;17996;51.056;3.656;2023-06-22T07:28:44;23.50;99.90
27544;DHT22;17996;51.056;3.656;2023-06-22T07:31:10;23.50;99.90
27544;DHT22;17996;51.056;3.656;2023-06-22T07:33:37;23.60;99.90
27544;DHT22;17996;51.056;3.656;2023-06-22T07:36:03;23.60;99.90
27544;DHT22;17996;51.056;3.656;2023-06-22T07:38:33;23.70;99.90
27544;DHT22;17996;51.056;3.656;2023-06-22T07:40:59;23.80;99.90
27544;DHT22;17996;51.056;3.656;2023-06-22T07:43:25;23.90;99.90
27544;DHT22;17996;51.056;3.656;2023-06-22T07:45:50;23.90;99.90
27544;DHT22;17996;51.056;3.656;2023-06-22T07:48:22;24.00;99.90
27544;DHT22;17996;51.056;3.656;2023-06-22T07:50:48;24.10;99.90
27544;DHT22;17996;51.056;3.656;2023-06-22T07:53:14;24.10;99.90
27544;DHT22;17996;51.056;3.656;2023-06-22T07:55:40;24.20;99.90
27544;DHT22;17996;51.056;3.656;2023-06-22T07:58:05;24.20;99.90
27544;DHT22;17996;51.056;3.656;2023-06-22T08:00:31;24.20;99.90
27544;DHT22;17996;51.056;3.656;2023-06-22T08:02:58;24.30;99.90
27544;DHT22;17996;51.056;3.656;2023-06-22T08:05:24;24.30;99.90
27544;DHT22;17996;51.056;3.656;2023-06-22T08:07:50;24.40;99.90
27544;DHT22;17996;51.056;3.656;2023-06-22T08:10:16;24.40;99.90
27544;DHT22;17996;51.056;3.656;2023-06-22T08:12:42;24.40;99.90
27544;DHT22;17996;51.056;3.656;2023-06-22T08:15:08;24.40;99.90
27544;DHT22;17996;51.056;3.656;2023-06-22T08:17:36;24.40;99.90
27544;DHT22;17996;51.056;3.656;2023-06-22T08:20:03;24.40;99.90
27544;DHT22;17996;51.056;3.656;2023-06-22T08:22:35;24.40;99.90
27544;DHT22;17996;51.056;3.656;2023-06-22T08:25:02;24.40;99.90
27544;DHT22;17996;51.056;3.656;2023-06-22T08:27:29;24.40;99.90
27544;DHT22;17996;51.056;3.656;2023-06-22T08:29:57;24.40;99.90
27544;DHT22;17996;51.056;3.656;2023-06-22T08:32:25;24.40;99.90
27544;DHT22;17996;51.056;3.656;2023-06-22T08:34:53;24.40;99.90
27544;DHT22;17996;51.056;3.656;2023-06-22T08:37:19;24.40;99.90
27544;DHT22;17996;51.056;3.656;2023-06-22T08:39:45;24.50;99.90
27544;DHT22;17996;51.056;3.656;2023-06-22T08:42:11;24.40;99.90
27544;DHT22;17996;51.056;3.656;2023-06-22T08:44:37;24.50;99.90
27544;DHT22;17996;51.056;3.656;2023-06-22T08:47:03;24.40;99.90
27544;DHT22;17996;51.056;3.656;2023-06-22T08:49:29;24.40;99.90
27544;DHT22;17996;51.056;3.656;2023-06-22T08:51:54;24.40;99.90
27544;DHT22;17996;51.056;3.656;2023-06-22T08:54:22;24.40;99.90
27544;DHT22;17996;51.056;3.656;2023-06-22T08:56:48;24.40;99.90
27544;DHT22;17996;51.056;3.656;2023-06-22T08:59:14;24.40;99.90
27544;DHT22;17996;51.056;3.656;2023-06-22T09:01:39;24.40;99.90
27544;DHT22;17996;51.056;3.656;2023-06-22T09:04:05;24.40;99.90
27544;DHT22;17996;51.056;3.656;2023-06-22T09:06:32;24.30;99.90
27544;DHT22;17996;51.056;3.656;2023-06-22T09:08:58;24.30;99.90
27544;DHT22;17996;51.056;3.656;2023-06-22T09:11:27;24.30;99.90
27544;DHT22;17996;51.056;3.656;2023-06-22T09:13:52;24.20;99.90
27544;DHT22;17996;51.056;3.656;2023-06-22T09:16:19;24.20;99.90
27544;DHT22;17996;51.056;3.656;2023-06-22T09:18:48;24.20;99.90
27544;DHT22;17996;51.056;3.656;2023-06-22T09:21:13;24.20;99.90
27544;DHT22;17996;51.056;3.656;2023-06-22T09:23:39;24.20;99.90
27544;DHT22;17996;51.056;3.656;2023-06-22T09:26:05;24.00;99.90
27544;DHT22;17996;51.056;3.656;2023-06-22T09:28:31;24.00;99.90
27544;DHT22;17996;51.056;3.656;2023-06-22T09:30:56;24.00;99.90
27544;DHT22;17996;51.056;3.656;2023-06-22T09:33:25;24.00;99.90
27544;DHT22;17996;51.056;3.656;2023-06-22T09:35:51;24.00;99.90
27544;DHT22;17996;51.056;3.656;2023-06-22T09:38:17;24.00;99.90
27544;DHT22;17996;51.056;3.656;2023-06-22T09:40:43;24.00;99.90
27544;DHT22;17996;51.056;3.656;2023-06-22T09:43:08;24.00;99.90
27544;DHT22;17996;51.056;3.656;2023-06-22T09:45:35;23.90;99.90
27544;DHT22;17996;51.056;3.656;2023-06-22T09:48:01;23.90;99.90
27544;DHT22;17996;51.056;3.656;2023-06-22T09:50:26;23.90;99.90
27544;DHT22;17996;51.056;3.656;2023-06-22T09:52:52;23.80;99.90
27544;DHT22;17996;51.056;3.656;2023-06-22T09:55:20;23.80;99.90
27544;DHT22;17996;51.056;3.656;2023-06-22T09:57:46;23.80;99.90
27544;DHT22;17996;51.056;3.656;2023-06-22T10:00:12;23.80;99.90
27544;DHT22;17996;51.056;3.656;2023-06-22T10:02:40;23.80;99.90
27544;DHT22;17996;51.056;3.656;2023-06-22T10:05:06;23.70;99.90
27544;DHT22;17996;51.056;3.656;2023-06-22T10:07:33;23.70;99.90
27544;DHT22;17996;51.056;3.656;2023-06-22T10:09:59;23.70;99.90
27544;DHT22;17996;51.056;3.656;2023-06-22T10:12:26;23.60;99.90
27544;DHT22;17996;51.056;3.656;2023-06-22T10:14:52;23.60;99.90
27544;DHT22;17996;51.056;3.656;2023-06-22T10:17:18;23.40;99.90
27544;DHT22;17996;51.056;3.656;2023-06-22T10:19:44;23.40;99.90
27544;DHT22;17996;51.056;3.656;2023-06-22T10:22:09;23.30;99.90
27544;DHT22;17996;51.056;3.656;2023-06-22T10:24:35;23.30;99.90
27544;DHT22;17996;51.056;3.656;2023-06-22T10:27:01;23.20;99.90
27544;DHT22;17996;51.056;3.656;2023-06-22T10:29:26;23.10;99.90
27544;DHT22;17996;51.056;3.656;2023-06-22T10:31:52;23.10;99.90
27544;DHT22;17996;51.056;3.656;2023-06-22T10:34:18;23.00;99.90
27544;DHT22;17996;51.056;3.656;2023-06-22T10:36:43;23.00;99.90
27544;DHT22;17996;51.056;3.656;2023-06-22T10:39:11;22.90;99.90
27544;DHT22;17996;51.056;3.656;2023-06-22T10:41:37;22.90;99.90
27544;DHT22;17996;51.056;3.656;2023-06-22T10:44:03;22.90;99.90
27544;DHT22;17996;51.056;3.656;2023-06-22T10:46:28;22.80;99.90
27544;DHT22;17996;51.056;3.656;2023-06-22T10:48:54;22.80;99.90
27544;DHT22;17996;51.056;3.656;2023-06-22T10:51:22;22.80;99.90
27544;DHT22;17996;51.056;3.656;2023-06-22T10:53:48;22.80;99.90
27544;DHT22;17996;51.056;3.656;2023-06-22T10:56:13;22.80;99.90
27544;DHT22;17996;51.056;3.656;2023-06-22T10:58:39;22.80;99.90
27544;DHT22;17996;51.056;3.656;2023-06-22T11:01:05;22.90;99.90
27544;DHT22;17996;51.056;3.656;2023-06-22T11:03:30;22.90;99.90
27544;DHT22;17996;51.056;3.656;2023-06-22T11:05:56;22.90;99.90
27544;DHT22;17996;51.056;3.656;2023-06-22T11:08:23;22.90;99.90
27544;DHT22;17996;51.056;3.656;2023-06-22T11:10:51;22.90;99.90
27544;DHT22;17996;51.056;3.656;2023-06-22T11:13:17;23.00;99.90
27544;DHT22;17996;51.056;3.656;2023-06-22T11:15:43;23.00;99.90
27544;DHT22;17996;51.056;3.656;2023-06-22T11:18:09;23.00;99.90
27544;DHT22;17996;51.056;3.656;2023-06-22T11:20:35;23.00;99.90
27544;DHT22;17996;51.056;3.656;2023-06-22T11:23:06;23.10;99.90
27544;DHT22;17996;51.056;3.656;2023-06-22T11:25:33;23.00;99.90
27544;DHT22;17996;51.056;3.656;2023-06-22T11:28:02;23.00;99.90
27544;DHT22;17996;51.056;3.656;2023-06-22T11:30:29;23.10;99.90
27544;DHT22;17996;51.056;3.656;2023-06-22T11:32:56;23.10;99.90
27544;DHT22;17996;51.056;3.656;2023-06-22T11:35:23;23.10;99.90
27544;DHT22;17996;51.056;3.656;2023-06-22T11:37:49;23.00;99.90
27544;DHT22;17996;51.056;3.656;2023-06-22T11:40:14;22.90;99.90
27544;DHT22;17996;51.056;3.656;2023-06-22T11:42:40;22.80;99.90
27544;DHT22;17996;51.056;3.656;2023-06-22T11:45:06;22.80;99.90
27544;DHT22;17996;51.056;3.656;2023-06-22T11:47:32;22.80;99.90
27544;DHT22;17996;51.056;3.656;2023-06-22T11:49:58;22.70;99.90
27544;DHT22;17996;51.056;3.656;2023-06-22T11:52:23;22.80;99.90
27544;DHT22;17996;51.056;3.656;2023-06-22T11:54:49;22.70;99.90
27544;DHT22;17996;51.056;3.656;2023-06-22T11:57:15;22.70;99.90
27544;DHT22;17996;51.056;3.656;2023-06-22T11:59:40;22.70;99.90
27544;DHT22;17996;51.056;3.656;2023-06-22T12:02:06;22.70;99.90
27544;DHT22;17996;51.056;3.656;2023-06-22T12:04:32;22.70;99.90
27544;DHT22;17996;51.056;3.656;2023-06-22T12:06:58;22.70;99.90
27544;DHT22;17996;51.056;3.656;2023-06-22T12:09:24;22.70;99.90
27544;DHT22;17996;51.056;3.656;2023-06-22T12:11:50;22.70;99.90
27544;DHT22;17996;51.056;3.656;2023-06-22T12:14:15;22.70;99.90
27544;DHT22;17996;51.056;3.656;2023-06-22T12:16:41;22.70;99.90
27544;DHT22;17996;51.056;3.656;2023-06-22T12:19:09;22.80;99.90
27544;DHT22;17996;51.056;3.656;2023-06-22T12:21:35;22.90;99.90
27544;DHT22;17996;51.056;3.656;2023-06-22T12:24:01;23.00;99.90
27544;DHT22;17996;51.056;3.656;2023-06-22T12:26:26;23.00;99.90
27544;DHT22;17996;51.056;3.656;2023-06-22T12:28:52;23.00;99.90
27544;DHT22;17996;51.056;3.656;2023-06-22T12:31:17;23.00;99.90
27544;DHT22;17996;51.056;3.656;2023-06-22T12:33:43;23.00;99.90
27544;DHT22;17996;51.056;3.656;2023-06-22T12:36:09;23.00;99.90
27544;DHT22;17996;51.056;3.656;2023-06-22T12:38:35;23.00;99.90
27544;DHT22;17996;51.056;3.656;2023-06-22T12:41:00;23.00;99.90
27544;DHT22;17996;51.056;3.656;2023-06-22T12:43:26;23.00;99.90
27544;DHT22;17996;51.056;3.656;2023-06-22T12:45:52;22.90;99.90
27544;DHT22;17996;51.056;3.656;2023-06-22T12:48:18;22.90;99.90
27544;DHT22;17996;51.056;3.656;2023-06-22T12:50:45;22.80;99.90
27544;DHT22;17996;51.056;3.656;2023-06-22T12:53:10;22.80;99.90
27544;DHT22;17996;51.056;3.656;2023-06-22T12:55:36;22.80;99.90
27544;DHT22;17996;51.056;3.656;2023-06-22T12:58:02;22.80;99.90
27544;DHT22;17996;51.056;3.656;2023-06-22T13:00:27;22.80;99.90
27544;DHT22;17996;51.056;3.656;2023-06-22T13:02:53;22.80;99.90
27544;DHT22;17996;51.056;3.656;2023-06-22T13:05:19;23.00;99.90
27544;DHT22;17996;51.056;3.656;2023-06-22T13:07:47;23.00;99.90
27544;DHT22;17996;51.056;3.656;2023-06-22T13:10:12;23.10;99.90
27544;DHT22;17996;51.056;3.656;2023-06-22T13:12:38;23.30;99.90
27544;DHT22;17996;51.056;3.656;2023-06-22T13:15:04;23.40;99.90
27544;DHT22;17996;51.056;3.656;2023-06-22T13:17:30;23.50;99.90
27544;DHT22;17996;51.056;3.656;2023-06-22T13:19:55;23.50;99.90
27544;DHT22;17996;51.056;3.656;2023-06-22T13:22:35;23.60;99.90
27544;DHT22;17996;51.056;3.656;2023-06-22T13:25:09;23.70;99.90
27544;DHT22;17996;51.056;3.656;2023-06-22T13:27:38;23.70;99.90
27544;DHT22;17996;51.056;3.656;2023-06-22T13:30:04;23.70;99.90
27544;DHT22;17996;51.056;3.656;2023-06-22T13:32:30;23.80;99.90
27544;DHT22;17996;51.056;3.656;2023-06-22T13:34:55;23.80;99.90
27544;DHT22;17996;51.056;3.656;2023-06-22T13:37:21;23.90;99.90
27544;DHT22;17996;51.056;3.656;2023-06-22T13:39:47;24.10;99.90
27544;DHT22;17996;51.056;3.656;2023-06-22T13:42:12;24.20;99.90
27544;DHT22;17996;51.056;3.656;2023-06-22T13:44:38;24.40;99.90
27544;DHT22;17996;51.056;3.656;2023-06-22T13:47:04;24.70;99.90
27544;DHT22;17996;51.056;3.656;2023-06-22T13:49:30;25.00;99.90
27544;DHT22;17996;51.056;3.656;2023-06-22T13:51:56;25.20;99.90
27544;DHT22;17996;51.056;3.656;2023-06-22T13:54:21;25.40;99.90
27544;DHT22;17996;51.056;3.656;2023-06-22T13:56:49;25.50;99.90
27544;DHT22;17996;51.056;3.656;2023-06-22T13:59:14;25.70;99.90
27544;DHT22;17996;51.056;3.656;2023-06-22T14:01:40;25.70;99.90
27544;DHT22;17996;51.056;3.656;2023-06-22T14:04:08;25.90;99.90
27544;DHT22;17996;51.056;3.656;2023-06-22T14:06:33;26.00;99.90
27544;DHT22;17996;51.056;3.656;2023-06-22T14:09:00;26.00;99.90
27544;DHT22;17996;51.056;3.656;2023-06-22T14:11:25;26.00;99.90
27544;DHT22;17996;51.056;3.656;2023-06-22T14:13:51;26.10;99.90
27544;DHT22;17996;51.056;3.656;2023-06-22T14:16:17;25.90;99.90
27544;DHT22;17996;51.056;3.656;2023-06-22T14:18:44;25.60;99.90
27544;DHT22;17996;51.056;3.656;2023-06-22T14:21:10;25.50;99.90
27544;DHT22;17996;51.056;3.656;2023-06-22T14:23:35;25.40;99.90
27544;DHT22;17996;51.056;3.656;2023-06-22T14:26:02;25.30;99.90
27544;DHT22;17996;51.056;3.656;2023-06-22T14:28:28;25.20;99.90
27544;DHT22;17996;51.056;3.656;2023-06-22T14:30:54;25.10;99.90
27544;DHT22;17996;51.056;3.656;2023-06-22T14:33:19;25.20;99.90
27544;DHT22;17996;51.056;3.656;2023-06-22T14:35:45;25.40;99.90
27544;DHT22;17996;51.056;3.656;2023-06-22T14:38:10;25.80;99.90
27544;DHT22;17996;51.056;3.656;2023-06-22T14:40:36;26.20;99.90
27544;DHT22;17996;51.056;3.656;2023-06-22T14:43:02;26.40;99.90
27544;DHT22;17996;51.056;3.656;2023-06-22T14:45:27;26.70;99.90
27544;DHT22;17996;51.056;3.656;2023-06-22T14:47:53;26.80;99.90
27544;DHT22;17996;51.056;3.656;2023-06-22T14:50:19;27.00;99.90
27544;DHT22;17996;51.056;3.656;2023-06-22T14:52:44;27.00;99.90
27544;DHT22;17996;51.056;3.656;2023-06-22T14:55:10;26.90;99.90
27544;DHT22;17996;51.056;3.656;2023-06-22T14:57:35;26.60;99.90
27544;DHT22;17996;51.056;3.656;2023-06-22T15:00:01;26.40;99.90
27544;DHT22;17996;51.056;3.656;2023-06-22T15:02:28;26.30;99.90
27544;DHT22;17996;51.056;3.656;2023-06-22T15:04:53;26.10;99.90
27544;DHT22;17996;51.056;3.656;2023-06-22T15:07:20;26.00;99.90
27544;DHT22;17996;51.056;3.656;2023-06-22T15:09:46;25.90;99.90
27544;DHT22;17996;51.056;3.656;2023-06-22T15:12:11;25.90;99.90
27544;DHT22;17996;51.056;3.656;2023-06-22T15:14:40;26.00;99.90
27544;DHT22;17996;51.056;3.656;2023-06-22T15:17:07;25.90;99.90
27544;DHT22;17996;51.056;3.656;2023-06-22T15:19:35;25.80;99.90
27544;DHT22;17996;51.056;3.656;2023-06-22T15:22:03;25.50;99.90
27544;DHT22;17996;51.056;3.656;2023-06-22T15:24:28;25.40;99.90
27544;DHT22;17996;51.056;3.656;2023-06-22T15:26:54;25.30;99.90
27544;DHT22;17996;51.056;3.656;2023-06-22T15:29:20;25.10;99.90